createdAt,value
2022-11-25T00:01:43.679Z,6.00
2022-11-25T00:04:10.181Z,6.50
2022-11-25T00:06:36.672Z,6.17
2022-11-25T00:09:20.997Z,7.17
2022-11-25T00:11:47.312Z,6.70
2022-11-25T00:14:15.139Z,6.60
2022-11-25T00:16:45.144Z,6.87
2022-11-25T00:19:14.563Z,6.43
2022-11-25T00:21:40.856Z,6.23
2022-11-25T00:24:07.430Z,6.67
2022-11-25T00:26:35.936Z,6.53
2022-11-25T00:29:05.646Z,6.77
2022-11-25T00:31:34.506Z,6.20
2022-11-25T00:34:01.238Z,6.07
2022-11-25T00:36:28.878Z,6.80
2022-11-25T00:38:56.914Z,6.70
2022-11-25T00:41:42.893Z,6.40
2022-11-25T00:44:29.355Z,6.07
2022-11-25T00:46:55.782Z,6.83
2022-11-25T00:49:22.344Z,6.07
2022-11-25T00:51:48.679Z,6.40
2022-11-25T00:54:15.250Z,6.43
2022-11-25T00:56:41.826Z,6.00
2022-11-25T00:59:08.982Z,6.40
2022-11-25T01:01:36.217Z,5.77
2022-11-25T01:04:02.800Z,5.70
2022-11-25T01:06:29.209Z,5.57
2022-11-25T01:08:55.623Z,6.20
2022-11-25T01:11:23.224Z,5.77
2022-11-25T01:13:50.429Z,5.20
2022-11-25T01:16:20.790Z,5.60
2022-11-25T01:18:47.496Z,6.07
2022-11-25T01:21:23.610Z,5.63
2022-11-25T01:23:50.708Z,5.10
2022-11-25T01:26:19.308Z,5.60
2022-11-25T01:28:46.184Z,5.40
2022-11-25T01:31:16.545Z,5.87
2022-11-25T01:33:44.869Z,5.53
2022-11-25T01:36:14.661Z,5.70
2022-11-25T01:38:41.906Z,5.73
2022-11-25T01:41:11.776Z,6.20
2022-11-25T01:43:38.533Z,5.53
2022-11-25T01:46:20.045Z,5.80
2022-11-25T01:48:49.430Z,5.27
2022-11-25T01:51:21.894Z,5.57
2022-11-25T01:53:48.622Z,6.07
2022-11-25T01:56:15.656Z,5.53
2022-11-25T01:58:43.517Z,6.37
2022-11-25T02:01:10.465Z,5.80
2022-11-25T02:03:46.618Z,5.60
2022-11-25T02:06:18.961Z,5.77
2022-11-25T02:08:49.733Z,6.10
2022-11-25T02:11:16.942Z,6.63
2022-11-25T02:13:46.069Z,5.67
2022-11-25T02:16:12.604Z,5.97
2022-11-25T02:18:38.980Z,5.67
2022-11-25T02:21:05.474Z,6.37
2022-11-25T02:23:54.929Z,5.70
2022-11-25T02:26:21.613Z,6.30
2022-11-25T02:28:48.698Z,6.73
2022-11-25T02:31:23.077Z,6.33
2022-11-25T02:33:50.074Z,6.40
2022-11-25T02:36:20.063Z,6.30
2022-11-25T02:38:53.378Z,6.97
2022-11-25T02:41:24.932Z,6.20
2022-11-25T02:43:51.330Z,6.90
2022-11-25T02:46:22.527Z,6.60
2022-11-25T02:51:38.111Z,8.27
2022-11-25T02:54:04.706Z,9.10
2022-11-25T02:56:34.522Z,8.90
2022-11-25T02:59:01.804Z,9.40
2022-11-25T03:01:31.058Z,8.70
2022-11-25T03:03:57.568Z,8.50
2022-11-25T03:06:23.965Z,8.33
2022-11-25T03:08:50.275Z,8.43
2022-11-25T03:11:16.580Z,8.63
2022-11-25T03:13:43.205Z,8.30
2022-11-25T03:16:09.593Z,8.70
2022-11-25T03:18:36.009Z,8.20
2022-11-25T03:21:02.777Z,8.00
2022-11-25T03:23:29.236Z,7.60
2022-11-25T03:25:55.582Z,8.07
2022-11-25T03:28:22.030Z,7.77
2022-11-25T03:30:48.333Z,7.60
2022-11-25T03:33:14.696Z,7.93
2022-11-25T03:35:41.065Z,7.63
2022-11-25T03:38:07.403Z,7.57
2022-11-25T03:40:33.770Z,7.70
2022-11-25T03:43:00.077Z,7.47
2022-11-25T03:45:26.365Z,7.80
2022-11-25T03:47:52.727Z,7.17
2022-11-25T03:50:19.102Z,7.10
2022-11-25T03:52:45.441Z,7.37
2022-11-25T03:55:12.975Z,7.47
2022-11-25T03:57:40.164Z,7.37
2022-11-25T04:00:07.453Z,8.63
2022-11-25T04:02:33.864Z,8.13
2022-11-25T04:05:00.208Z,8.47
2022-11-25T04:07:26.627Z,8.27
2022-11-25T04:09:53.041Z,7.87
2022-11-25T04:12:38.033Z,7.87
2022-11-25T04:15:04.697Z,7.37
2022-11-25T04:17:30.971Z,7.87
2022-11-25T04:19:57.429Z,8.10
2022-11-25T04:22:23.744Z,7.80
2022-11-25T04:24:50.134Z,7.10
2022-11-25T04:27:16.413Z,8.30
2022-11-25T04:29:42.765Z,8.20
2022-11-25T04:32:09.095Z,7.83
2022-11-25T04:34:35.625Z,8.70
2022-11-25T04:37:02.106Z,8.20
2022-11-25T04:39:28.466Z,8.17
2022-11-25T04:42:14.736Z,7.97
2022-11-25T04:44:41.061Z,7.63
2022-11-25T04:47:07.442Z,7.33
2022-11-25T04:49:33.796Z,7.33
2022-11-25T04:52:00.109Z,7.57
2022-11-25T04:54:26.493Z,7.43
2022-11-25T04:56:52.883Z,7.77
2022-11-25T04:59:37.962Z,7.60
2022-11-25T05:02:04.329Z,8.23
2022-11-25T05:04:31.025Z,6.87
2022-11-25T05:06:57.608Z,7.77
2022-11-25T05:09:23.908Z,7.27
2022-11-25T05:11:50.194Z,7.40
2022-11-25T05:14:16.511Z,7.67
2022-11-25T05:16:42.914Z,7.03
2022-11-25T05:19:09.392Z,7.47
2022-11-25T05:21:35.724Z,8.07
2022-11-25T05:24:02.046Z,7.87
2022-11-25T05:26:28.344Z,7.90
2022-11-25T05:28:54.634Z,7.60
2022-11-25T05:31:21.056Z,7.60
2022-11-25T05:33:47.397Z,7.37
2022-11-25T05:36:13.707Z,7.03
2022-11-25T05:38:40.074Z,7.27
2022-11-25T05:41:08.050Z,7.60
2022-11-25T05:43:34.862Z,7.40
2022-11-25T05:46:05.185Z,7.83
2022-11-25T05:48:31.670Z,7.83
2022-11-25T05:51:03.016Z,7.67
2022-11-25T05:53:29.804Z,7.53
2022-11-25T05:55:58.593Z,8.03
2022-11-25T05:58:25.598Z,6.63
2022-11-25T06:00:52.101Z,7.47
2022-11-25T06:03:18.679Z,6.93
2022-11-25T06:05:45.243Z,6.90
2022-11-25T06:08:11.591Z,7.73
2022-11-25T06:10:40.506Z,8.17
2022-11-25T06:13:07.877Z,7.33
2022-11-25T06:15:40.902Z,7.40
2022-11-25T06:18:07.241Z,7.50
2022-11-25T06:20:33.694Z,7.10
2022-11-25T06:23:00.265Z,7.33
2022-11-25T06:25:26.749Z,7.40
2022-11-25T06:30:39.832Z,7.97
2022-11-25T06:33:06.184Z,7.27
2022-11-25T06:35:32.468Z,6.80
2022-11-25T06:37:59.646Z,7.53
2022-11-25T06:40:26.148Z,8.00
2022-11-25T06:42:52.514Z,7.33
2022-11-25T06:45:19.017Z,9.93
2022-11-25T06:47:45.458Z,7.67
2022-11-25T06:50:11.818Z,7.77
2022-11-25T06:52:38.192Z,8.27
2022-11-25T06:55:04.932Z,8.00
2022-11-25T06:57:31.271Z,7.63
2022-11-25T06:59:57.635Z,9.07
2022-11-25T07:02:23.951Z,7.30
2022-11-25T07:04:50.410Z,7.80
2022-11-25T07:07:16.862Z,8.13
2022-11-25T07:09:43.311Z,8.00
2022-11-25T07:12:09.728Z,7.73
2022-11-25T07:14:36.310Z,8.13
2022-11-25T07:17:07.427Z,7.40
2022-11-25T07:19:36.848Z,8.00
2022-11-25T07:22:03.177Z,8.40
2022-11-25T07:24:29.694Z,8.57
2022-11-25T07:26:56.232Z,8.47
2022-11-25T07:29:51.690Z,8.97
2022-11-25T07:32:10.896Z,8.63
2022-11-25T07:34:37.469Z,7.97
2022-11-25T07:37:03.819Z,8.37
2022-11-25T07:39:30.207Z,8.63
2022-11-25T07:41:56.638Z,8.00
2022-11-25T07:44:23.063Z,8.50
2022-11-25T07:46:50.819Z,7.83
2022-11-25T07:49:20.530Z,8.23
2022-11-25T07:51:53.568Z,8.23
2022-11-25T07:54:20.719Z,9.03
2022-11-25T07:56:48.476Z,9.00
2022-11-25T07:59:20.183Z,8.37
2022-11-25T08:01:49.332Z,9.57
2022-11-25T08:04:20.215Z,8.53
2022-11-25T08:06:49.032Z,8.47
2022-11-25T08:09:19.136Z,9.20
2022-11-25T08:11:46.905Z,9.17
2022-11-25T08:14:14.204Z,8.73
2022-11-25T08:16:40.681Z,8.83
2022-11-25T08:19:11.297Z,8.40
2022-11-25T08:21:37.674Z,8.23
2022-11-25T08:24:04.247Z,8.80
2022-11-25T08:26:34.895Z,8.53
2022-11-25T08:29:01.916Z,8.03
2022-11-25T08:31:31.577Z,8.67
2022-11-25T08:33:58.728Z,8.50
2022-11-25T08:36:26.874Z,8.10
2022-11-25T08:38:57.612Z,8.03
2022-11-25T08:41:32.616Z,8.07
2022-11-25T08:44:01.591Z,7.23
2022-11-25T08:46:33.273Z,7.53
2022-11-25T08:49:00.522Z,7.53
2022-11-25T08:51:30.903Z,7.70
2022-11-25T08:53:57.956Z,7.80
2022-11-25T08:56:26.566Z,7.53
2022-11-25T08:58:54.546Z,7.23
2022-11-25T09:01:22.456Z,6.83
2022-11-25T09:03:51.431Z,8.00
2022-11-25T09:06:19.093Z,8.30
2022-11-25T09:08:46.351Z,7.90
2022-11-25T09:11:15.948Z,8.30
2022-11-25T09:13:42.409Z,8.00
2022-11-25T09:16:09.721Z,7.93
2022-11-25T09:18:37.088Z,8.53
2022-11-25T09:21:11.656Z,8.63
2022-11-25T09:23:39.246Z,8.63
2022-11-25T09:26:07.498Z,8.50
2022-11-25T09:28:34.717Z,8.43
2022-11-25T09:31:07.511Z,8.60
2022-11-25T09:33:33.871Z,8.53
2022-11-25T09:36:01.687Z,8.63
2022-11-25T09:38:28.229Z,9.20
2022-11-25T09:41:54.434Z,10.63
2022-11-25T09:44:55.536Z,10.63
2022-11-25T09:47:58.128Z,12.00
2022-11-25T09:50:36.448Z,12.50
2022-11-25T09:53:18.297Z,11.70
2022-11-25T09:55:48.398Z,9.73
2022-11-25T09:58:32.192Z,9.40
2022-11-25T10:01:00.210Z,10.10
2022-11-25T10:03:53.315Z,9.93
2022-11-25T10:06:28.409Z,9.40
2022-11-25T10:09:11.121Z,9.53
2022-11-25T10:11:46.317Z,9.90
2022-11-25T10:14:37.695Z,9.30
2022-11-25T10:17:09.966Z,9.90
2022-11-25T10:20:00.436Z,10.23
2022-11-25T10:22:32.575Z,9.90
2022-11-25T10:25:07.077Z,10.17
2022-11-25T10:27:55.094Z,8.63
2022-11-25T10:30:24.925Z,9.17
2022-11-25T10:33:09.946Z,9.23
2022-11-25T10:35:43.373Z,9.87
2022-11-25T10:38:19.297Z,8.77
2022-11-25T10:40:49.568Z,8.57
2022-11-25T10:43:15.927Z,8.50
2022-11-25T10:45:51.473Z,8.87
2022-11-25T10:48:44.057Z,8.73
2022-11-25T10:51:29.130Z,9.03
2022-11-25T10:54:15.290Z,8.53
2022-11-25T10:56:51.204Z,8.27
2022-11-25T10:59:32.644Z,8.87
2022-11-25T11:02:19.495Z,8.77
2022-11-25T11:05:04.059Z,7.83
2022-11-25T11:07:33.804Z,7.47
2022-11-25T11:10:24.746Z,8.70
2022-11-25T11:12:55.576Z,7.90
2022-11-25T11:15:27.893Z,7.90
2022-11-25T11:17:56.165Z,7.80
2022-11-25T11:20:28.371Z,8.13
2022-11-25T11:23:07.094Z,8.43
2022-11-25T11:25:37.730Z,8.33
2022-11-25T11:28:25.839Z,8.10
2022-11-25T11:31:03.871Z,9.77
2022-11-25T11:33:41.251Z,8.57
2022-11-25T11:36:22.498Z,7.67
2022-11-25T11:39:13.494Z,8.60
2022-11-25T11:41:51.939Z,8.90
2022-11-25T11:44:49.299Z,9.10
2022-11-25T11:47:29.148Z,10.23
2022-11-25T11:50:16.920Z,13.70
2022-11-25T11:52:58.553Z,12.53
2022-11-25T11:56:00.268Z,12.40
2022-11-25T11:58:47.322Z,8.87
2022-11-25T12:01:47.952Z,10.77
2022-11-25T12:04:28.266Z,14.43
2022-11-25T12:07:07.172Z,11.90
2022-11-25T12:09:43.047Z,9.77
2022-11-25T12:12:19.050Z,10.70
2022-11-25T12:14:55.342Z,9.40
2022-11-25T12:17:34.338Z,9.30
2022-11-25T12:20:20.386Z,8.93
2022-11-25T12:23:00.615Z,8.83
2022-11-25T12:25:34.639Z,7.80
2022-11-25T12:28:24.620Z,8.07
2022-11-25T12:31:01.852Z,7.87
2022-11-25T12:33:43.861Z,8.37
2022-11-25T12:36:15.530Z,10.63
2022-11-25T12:38:51.122Z,8.03
2022-11-25T12:41:56.093Z,7.60
2022-11-25T12:44:31.237Z,7.80
2022-11-25T12:46:58.550Z,7.90
2022-11-25T12:49:44.444Z,7.90
2022-11-25T12:52:33.006Z,8.23
2022-11-25T12:55:16.280Z,8.03
2022-11-25T12:57:57.705Z,7.70
2022-11-25T13:00:43.385Z,7.20
2022-11-25T13:03:31.515Z,7.23
2022-11-25T13:06:13.589Z,8.03
2022-11-25T13:09:04.930Z,7.73
2022-11-25T13:12:02.865Z,8.00
2022-11-25T13:14:48.335Z,6.63
2022-11-25T13:17:16.588Z,7.33
2022-11-25T13:19:45.398Z,7.83
2022-11-25T13:22:17.869Z,7.33
2022-11-25T13:24:44.482Z,7.37
2022-11-25T13:27:29.848Z,7.93
2022-11-25T13:29:56.172Z,7.27
2022-11-25T13:32:36.823Z,6.87
2022-11-25T13:35:21.032Z,6.97
2022-11-25T13:37:49.243Z,7.30
2022-11-25T13:40:30.791Z,7.77
2022-11-25T13:43:00.205Z,6.97
2022-11-25T13:45:32.042Z,7.10
2022-11-25T13:48:12.848Z,6.80
2022-11-25T13:51:03.384Z,7.57
2022-11-25T13:53:34.804Z,7.63
2022-11-25T13:56:26.203Z,7.20
2022-11-25T13:59:16.941Z,7.03
2022-11-25T14:01:46.503Z,7.50
2022-11-25T14:04:14.365Z,6.80
2022-11-25T14:06:52.421Z,7.50
2022-11-25T14:09:42.313Z,7.57
2022-11-25T14:12:33.513Z,6.93
2022-11-25T14:15:25.970Z,6.77
2022-11-25T14:18:15.127Z,6.80
2022-11-25T14:20:50.466Z,6.90
2022-11-25T14:23:59.649Z,7.97
2022-11-25T14:26:49.439Z,6.97
2022-11-25T14:29:31.952Z,7.40
2022-11-25T14:32:10.390Z,7.40
2022-11-25T14:34:41.606Z,7.20
2022-11-25T14:37:23.687Z,6.37
2022-11-25T14:39:59.548Z,6.83
2022-11-25T14:42:35.669Z,6.53
2022-11-25T14:45:03.116Z,6.30
2022-11-25T14:47:36.079Z,6.60
2022-11-25T14:50:33.559Z,6.90
2022-11-25T14:52:58.513Z,6.93
2022-11-25T14:55:31.252Z,6.77
2022-11-25T14:57:57.805Z,6.73
2022-11-25T15:00:24.215Z,6.83
2022-11-25T15:03:02.638Z,7.50
2022-11-25T15:05:35.652Z,6.57
2022-11-25T15:08:07.926Z,7.17
2022-11-25T15:10:55.179Z,7.33
2022-11-25T15:13:34.145Z,7.00
2022-11-25T15:16:11.223Z,7.20
2022-11-25T15:18:39.181Z,7.53
2022-11-25T15:21:06.242Z,6.87
2022-11-25T15:23:37.092Z,7.20
2022-11-25T15:26:04.956Z,7.17
2022-11-25T15:28:36.455Z,7.07
2022-11-25T15:31:09.829Z,7.30
2022-11-25T15:33:37.374Z,7.40
2022-11-25T15:36:04.834Z,7.40
2022-11-25T15:38:41.653Z,7.33
2022-11-25T15:41:20.594Z,7.37
2022-11-25T15:43:50.457Z,7.50
2022-11-25T15:46:17.943Z,7.73
2022-11-25T15:48:46.877Z,7.83
2022-11-25T15:51:28.246Z,7.77
2022-11-25T15:53:58.828Z,8.23
2022-11-25T15:56:27.150Z,8.53
2022-11-25T15:58:58.653Z,8.37
2022-11-25T16:01:29.033Z,7.83
2022-11-25T16:04:11.043Z,7.73
2022-11-25T16:06:52.606Z,7.93
2022-11-25T16:09:21.209Z,8.33
2022-11-25T16:11:47.577Z,7.33
2022-11-25T16:14:36.155Z,7.60
2022-11-25T16:17:11.134Z,8.63
2022-11-25T16:19:45.671Z,8.13
2022-11-25T16:22:18.938Z,7.87
2022-11-25T16:24:57.271Z,7.80
2022-11-25T16:27:28.726Z,7.67
2022-11-25T16:30:18.379Z,7.50
2022-11-25T16:32:44.821Z,7.73
2022-11-25T16:35:18.257Z,7.73
2022-11-25T16:37:48.827Z,8.87
2022-11-25T16:40:17.264Z,9.77
2022-11-25T16:42:48.422Z,10.07
2022-11-25T16:45:21.778Z,9.07
2022-11-25T16:47:48.095Z,9.23
2022-11-25T16:50:16.211Z,9.93
2022-11-25T16:52:43.017Z,10.43
2022-11-25T16:55:09.893Z,9.40
2022-11-25T16:57:37.434Z,9.37
2022-11-25T17:00:08.553Z,9.67
2022-11-25T17:02:35.630Z,9.93
2022-11-25T17:05:23.257Z,9.47
2022-11-25T17:07:50.388Z,9.40
2022-11-25T17:10:17.384Z,9.30
2022-11-25T17:12:45.555Z,10.37
2022-11-25T17:15:16.305Z,9.97
2022-11-25T17:17:46.505Z,10.53
2022-11-25T17:20:19.002Z,11.03
2022-11-25T17:22:45.422Z,9.97
2022-11-25T17:25:12.954Z,10.43
2022-11-25T17:27:40.090Z,9.67
2022-11-25T17:30:13.377Z,8.93
2022-11-25T17:32:39.728Z,9.63
2022-11-25T17:35:17.519Z,8.97
2022-11-25T17:37:43.924Z,10.13
2022-11-25T17:40:12.298Z,9.87
2022-11-25T17:42:39.415Z,10.77
2022-11-25T17:45:13.501Z,10.67
2022-11-25T17:47:40.437Z,10.63
2022-11-25T17:50:18.196Z,11.27
2022-11-25T17:52:44.639Z,11.50
2022-11-25T17:55:11.033Z,11.60
2022-11-25T17:57:37.801Z,11.50
2022-11-25T18:00:07.046Z,11.30
2022-11-25T18:02:33.357Z,10.73
2022-11-25T18:05:01.070Z,11.63
2022-11-25T18:07:27.459Z,10.43
2022-11-25T18:09:53.849Z,10.67
2022-11-25T18:12:28.377Z,11.10
2022-11-25T18:14:55.633Z,11.60
2022-11-25T18:17:21.982Z,10.33
2022-11-25T18:19:54.442Z,11.10
2022-11-25T18:22:23.919Z,10.53
2022-11-25T18:24:50.747Z,10.20
2022-11-25T18:27:24.807Z,11.97
2022-11-25T18:29:52.001Z,11.63
2022-11-25T18:32:18.832Z,10.13
2022-11-25T18:34:45.518Z,9.67
2022-11-25T18:37:12.573Z,9.20
2022-11-25T18:39:39.193Z,10.13
2022-11-25T18:42:06.853Z,10.83
2022-11-25T18:44:43.389Z,11.20
2022-11-25T18:47:13.318Z,10.97
2022-11-25T18:49:39.774Z,11.07
2022-11-25T18:52:06.134Z,11.70
2022-11-25T18:54:32.496Z,11.90
2022-11-25T18:56:58.805Z,12.23
2022-11-25T18:59:29.495Z,13.67
2022-11-25T19:01:55.988Z,12.33
2022-11-25T19:04:22.434Z,12.73
2022-11-25T19:06:48.725Z,13.13
2022-11-25T19:09:15.125Z,11.30
2022-11-25T19:11:46.052Z,12.50
2022-11-25T19:14:38.009Z,14.10
2022-11-25T19:17:09.298Z,14.67
2022-11-25T19:19:37.807Z,12.93
2022-11-25T19:22:10.771Z,12.30
2022-11-25T19:24:37.265Z,9.40
2022-11-25T19:27:03.862Z,9.30
2022-11-25T19:29:41.803Z,10.13
2022-11-25T19:32:19.056Z,8.50
2022-11-25T19:34:48.013Z,9.00
2022-11-25T19:37:17.613Z,9.13
2022-11-25T19:39:43.947Z,10.13
2022-11-25T19:42:10.982Z,10.87
2022-11-25T19:44:37.558Z,10.87
2022-11-25T19:47:19.489Z,10.67
2022-11-25T19:49:46.748Z,12.87
2022-11-25T19:52:21.828Z,12.70
2022-11-25T19:54:48.537Z,11.43
2022-11-25T19:57:21.141Z,11.80
2022-11-25T19:59:48.136Z,10.90
2022-11-25T20:02:22.642Z,11.37
2022-11-25T20:04:53.094Z,11.60
2022-11-25T20:07:20.823Z,11.83
2022-11-25T20:09:47.869Z,10.97
2022-11-25T20:12:20.875Z,11.07
2022-11-25T20:14:48.061Z,12.13
2022-11-25T20:17:27.051Z,11.87
2022-11-25T20:19:55.819Z,11.80
2022-11-25T20:22:27.917Z,10.37
2022-11-25T20:24:55.370Z,11.37
2022-11-25T20:27:26.455Z,12.20
2022-11-25T20:29:52.842Z,12.20
2022-11-25T20:32:33.935Z,11.10
2022-11-25T20:35:00.482Z,10.50
2022-11-25T20:37:29.351Z,10.50
2022-11-25T20:40:00.656Z,11.57
2022-11-25T20:42:27.359Z,10.57
2022-11-25T20:44:57.516Z,10.30
2022-11-25T20:47:26.062Z,7.83
2022-11-25T20:49:52.437Z,7.77
2022-11-25T20:52:26.415Z,8.43
2022-11-25T20:54:52.791Z,7.77
2022-11-25T20:57:19.144Z,7.77
2022-11-25T20:59:45.508Z,7.97
2022-11-25T21:02:11.921Z,7.50
2022-11-25T21:04:38.895Z,7.30
2022-11-25T21:07:11.977Z,7.23
2022-11-25T21:09:38.458Z,9.03
2022-11-25T21:12:17.379Z,7.13
2022-11-25T21:14:45.390Z,8.07
2022-11-25T21:17:11.673Z,8.37
2022-11-25T21:19:38.014Z,8.17
2022-11-25T21:22:04.497Z,9.10
2022-11-25T21:24:36.136Z,7.30
2022-11-25T21:27:13.987Z,8.00
2022-11-25T21:29:43.017Z,8.50
2022-11-25T21:32:20.476Z,9.10
2022-11-25T21:34:47.204Z,9.10
2022-11-25T21:37:13.706Z,8.47
2022-11-25T21:39:41.175Z,9.87
2022-11-25T21:42:17.255Z,8.30
2022-11-25T21:44:45.689Z,7.80
2022-11-25T21:47:24.242Z,7.33
2022-11-25T21:49:51.213Z,7.90
2022-11-25T21:52:18.276Z,7.43
2022-11-25T21:54:45.519Z,7.67
2022-11-25T21:57:26.706Z,8.37
2022-11-25T21:59:53.668Z,8.70
2022-11-25T22:02:23.443Z,8.73
2022-11-25T22:04:50.671Z,8.27
2022-11-25T22:07:17.269Z,8.40
2022-11-25T22:09:43.711Z,8.13
2022-11-25T22:12:28.995Z,9.50
2022-11-25T22:14:57.617Z,9.43
2022-11-25T22:17:24.193Z,8.17
2022-11-25T22:19:50.601Z,8.47
2022-11-25T22:22:17.694Z,9.47
2022-11-25T22:24:44.873Z,8.77
2022-11-25T22:27:23.207Z,8.87
2022-11-25T22:29:50.280Z,10.37
2022-11-25T22:32:17.707Z,8.43
2022-11-25T22:34:44.449Z,8.77
2022-11-25T22:37:16.884Z,8.93
2022-11-25T22:39:43.270Z,8.30
2022-11-25T22:42:15.881Z,8.80
2022-11-25T22:44:45.173Z,8.03
2022-11-25T22:47:33.116Z,7.73
2022-11-25T22:50:01.928Z,8.93
2022-11-25T22:52:30.662Z,8.20
2022-11-25T22:55:14.384Z,8.50
2022-11-25T22:57:41.018Z,9.40
2022-11-25T23:00:12.045Z,10.07
2022-11-25T23:02:38.539Z,9.97
2022-11-25T23:05:16.256Z,11.03
2022-11-25T23:07:45.081Z,12.33
2022-11-25T23:10:38.081Z,12.10
2022-11-25T23:13:04.457Z,12.10
2022-11-25T23:15:31.000Z,13.50
2022-11-25T23:17:59.410Z,11.60
2022-11-25T23:20:37.643Z,11.67
2022-11-25T23:23:14.852Z,10.70
2022-11-25T23:25:41.767Z,12.70
2022-11-25T23:28:08.409Z,11.83
2022-11-25T23:30:35.250Z,11.90
2022-11-25T23:33:03.067Z,13.03
2022-11-25T23:35:35.516Z,13.27
2022-11-25T23:38:02.688Z,14.17
2022-11-25T23:40:29.365Z,13.10
2022-11-25T23:42:56.170Z,13.07
2022-11-25T23:45:25.592Z,11.97
2022-11-25T23:47:54.715Z,11.23
2022-11-25T23:50:32.223Z,10.53
2022-11-25T23:53:02.242Z,11.83
2022-11-25T23:55:33.319Z,10.63
2022-11-25T23:58:01.548Z,12.80
